createdAt,value
2022-08-18T00:00:00.503Z,7.50
2022-08-18T00:01:00.700Z,7.60
2022-08-18T00:02:00.906Z,7.40
2022-08-18T00:03:14.206Z,7.60
2022-08-18T00:04:03.075Z,7.80
2022-08-18T00:05:01.090Z,7.50
2022-08-18T00:06:01.193Z,7.30
2022-08-18T00:07:01.323Z,7.50
2022-08-18T00:08:01.455Z,7.60
2022-08-18T00:09:01.574Z,7.40
2022-08-18T00:10:01.712Z,7.60
2022-08-18T00:11:01.828Z,7.30
2022-08-18T00:12:01.944Z,7.40
2022-08-18T00:13:02.073Z,7.20
2022-08-18T00:14:02.182Z,7.00
2022-08-18T00:15:02.291Z,7.70
2022-08-18T00:16:02.402Z,7.10
2022-08-18T00:17:02.518Z,7.80
2022-08-18T00:18:02.641Z,7.70
2022-08-18T00:19:07.099Z,7.70
2022-08-18T00:20:03.844Z,7.30
2022-08-18T00:21:02.962Z,7.50
2022-08-18T00:22:03.082Z,7.20
2022-08-18T00:23:03.211Z,7.60
2022-08-18T00:24:03.322Z,7.50
2022-08-18T00:25:03.440Z,7.50
2022-08-18T00:26:03.552Z,7.40
2022-08-18T00:27:03.688Z,7.90
2022-08-18T00:28:03.807Z,7.50
2022-08-18T00:29:03.923Z,7.30
2022-08-18T00:30:04.042Z,7.10
2022-08-18T00:31:04.165Z,7.60
2022-08-18T00:32:04.269Z,7.70
2022-08-18T00:33:04.390Z,7.30
2022-08-18T00:34:04.502Z,7.70
2022-08-18T00:35:04.612Z,7.70
2022-08-18T00:36:04.725Z,7.00
2022-08-18T00:37:04.852Z,7.30
2022-08-18T00:38:04.973Z,7.30
2022-08-18T00:39:05.088Z,7.70
2022-08-18T00:40:05.281Z,7.30
2022-08-18T00:41:05.273Z,7.40
2022-08-18T00:42:05.399Z,7.20
2022-08-18T00:43:05.521Z,7.30
2022-08-18T00:44:05.632Z,7.60
2022-08-18T00:45:05.782Z,7.20
2022-08-18T00:46:05.893Z,7.60
2022-08-18T00:47:06.005Z,7.40
2022-08-18T00:48:06.137Z,7.70
2022-08-18T00:49:06.265Z,7.50
2022-08-18T00:50:06.384Z,7.60
2022-08-18T00:51:07.448Z,7.70
2022-08-18T00:52:06.561Z,7.60
2022-08-18T00:53:06.690Z,7.30
2022-08-18T00:54:06.801Z,7.90
2022-08-18T00:55:06.912Z,7.50
2022-08-18T00:56:07.021Z,7.60
2022-08-18T00:57:07.136Z,7.70
2022-08-18T00:58:07.276Z,7.50
2022-08-18T00:59:07.377Z,7.50
2022-08-18T01:00:07.508Z,7.50
2022-08-18T01:01:07.723Z,7.50
2022-08-18T01:02:07.727Z,7.50
2022-08-18T01:03:07.914Z,7.60
2022-08-18T01:04:08.034Z,7.20
2022-08-18T01:05:08.161Z,7.50
2022-08-18T01:06:08.272Z,6.90
2022-08-18T01:07:08.386Z,7.30
2022-08-18T01:08:08.521Z,7.40
2022-08-18T01:09:08.651Z,7.20
2022-08-18T01:10:08.760Z,7.30
2022-08-18T01:11:08.886Z,7.50
2022-08-18T01:12:39.428Z,8.50
2022-08-18T01:13:10.085Z,7.40
2022-08-18T01:14:09.196Z,7.60
2022-08-18T01:15:09.321Z,7.40
2022-08-18T01:16:10.379Z,7.40
2022-08-18T01:17:09.483Z,7.50
2022-08-18T01:18:09.618Z,7.30
2022-08-18T01:19:09.737Z,7.70
2022-08-18T01:20:09.855Z,7.40
2022-08-18T01:21:09.959Z,7.30
2022-08-18T01:22:10.083Z,7.50
2022-08-18T01:23:10.221Z,7.40
2022-08-18T01:24:10.334Z,7.70
2022-08-18T01:25:10.450Z,7.40
2022-08-18T01:26:10.572Z,7.80
2022-08-18T01:27:10.680Z,8.10
2022-08-18T01:28:10.811Z,7.70
2022-08-18T01:29:10.933Z,7.30
2022-08-18T01:30:11.009Z,8.00
2022-08-18T01:31:11.122Z,7.20
2022-08-18T01:32:11.234Z,7.80
2022-08-18T01:33:11.362Z,7.80
2022-08-18T01:34:11.426Z,7.70
2022-08-18T01:35:11.532Z,7.60
2022-08-18T01:36:11.691Z,7.70
2022-08-18T01:37:11.802Z,7.80
2022-08-18T01:38:11.940Z,8.00
2022-08-18T01:39:12.052Z,7.70
2022-08-18T01:41:17.421Z,7.50
2022-08-18T01:41:27.176Z,7.90
2022-08-18T01:42:13.401Z,7.60
2022-08-18T01:43:12.483Z,7.80
2022-08-18T01:44:12.600Z,8.00
2022-08-18T01:45:12.771Z,8.10
2022-08-18T01:46:12.765Z,8.20
2022-08-18T01:47:12.886Z,7.60
2022-08-18T01:48:12.996Z,8.10
2022-08-18T01:49:13.122Z,8.10
2022-08-18T01:50:13.252Z,7.80
2022-08-18T01:51:13.414Z,8.20
2022-08-18T01:52:13.528Z,8.00
2022-08-18T01:53:13.650Z,8.30
2022-08-18T01:54:13.806Z,8.00
2022-08-18T01:55:14.774Z,8.30
2022-08-18T01:56:13.993Z,7.90
2022-08-18T01:57:14.111Z,8.30
2022-08-18T01:58:14.236Z,7.80
2022-08-18T01:59:14.363Z,8.30
2022-08-18T02:00:14.488Z,8.30
2022-08-18T02:01:14.671Z,8.20
2022-08-18T02:02:18.241Z,8.00
2022-08-18T02:03:14.801Z,8.00
2022-08-18T02:04:34.414Z,8.10
2022-08-18T02:05:15.991Z,8.00
2022-08-18T02:06:15.110Z,8.30
2022-08-18T02:07:15.300Z,8.10
2022-08-18T02:08:15.389Z,8.60
2022-08-18T02:09:15.482Z,8.10
2022-08-18T02:10:16.774Z,8.10
2022-08-18T02:11:15.681Z,8.10
2022-08-18T02:12:15.845Z,8.50
2022-08-18T02:13:15.970Z,8.40
2022-08-18T02:14:16.094Z,8.70
2022-08-18T02:15:16.229Z,7.90
2022-08-18T02:16:16.340Z,8.70
2022-08-18T02:17:16.568Z,8.30
2022-08-18T02:18:39.261Z,8.30
2022-08-18T02:19:17.603Z,8.20
2022-08-18T02:20:16.736Z,8.50
2022-08-18T02:21:19.002Z,8.20
2022-08-18T02:22:18.070Z,8.20
2022-08-18T02:23:17.202Z,8.50
2022-08-18T02:24:17.313Z,8.40
2022-08-18T02:25:17.480Z,8.70
2022-08-18T02:26:17.596Z,8.70
2022-08-18T02:27:17.768Z,8.30
2022-08-18T02:28:17.883Z,8.60
2022-08-18T02:29:18.010Z,8.40
2022-08-18T02:30:18.139Z,7.90
2022-08-18T02:31:18.254Z,8.40
2022-08-18T02:32:18.380Z,8.30
2022-08-18T02:33:18.499Z,8.90
2022-08-18T02:34:18.640Z,8.60
2022-08-18T02:35:18.758Z,8.40
2022-08-18T02:36:18.870Z,8.10
2022-08-18T02:37:19.001Z,8.20
2022-08-18T02:38:19.114Z,8.30
2022-08-18T02:39:19.247Z,8.60
2022-08-18T02:40:19.454Z,8.40
2022-08-18T02:41:19.531Z,8.10
2022-08-18T02:42:19.650Z,8.90
2022-08-18T02:43:19.782Z,8.70
2022-08-18T02:44:19.856Z,8.60
2022-08-18T02:45:20.011Z,7.60
2022-08-18T02:46:20.134Z,8.60
2022-08-18T02:47:20.221Z,8.40
2022-08-18T02:48:21.292Z,8.70
2022-08-18T02:49:20.479Z,8.60
2022-08-18T02:50:20.621Z,8.20
2022-08-18T02:51:20.744Z,9.00
2022-08-18T02:52:21.828Z,8.30
2022-08-18T02:53:21.079Z,8.90
2022-08-18T02:54:21.097Z,8.70
2022-08-18T02:55:21.234Z,8.80
2022-08-18T02:56:40.287Z,8.50
2022-08-18T02:57:22.437Z,8.60
2022-08-18T02:58:21.555Z,8.70
2022-08-18T02:59:21.715Z,8.70
2022-08-18T03:00:21.881Z,9.00
2022-08-18T03:01:22.055Z,8.90
2022-08-18T03:02:22.169Z,8.70
2022-08-18T03:03:22.302Z,8.70
2022-08-18T03:04:28.168Z,8.50
2022-08-18T03:05:23.595Z,8.70
2022-08-18T03:06:22.592Z,8.90
2022-08-18T03:07:22.717Z,9.00
2022-08-18T03:08:22.832Z,9.20
2022-08-18T03:09:22.940Z,8.90
2022-08-18T03:10:31.436Z,8.80
2022-08-18T03:11:24.144Z,8.70
2022-08-18T03:12:23.260Z,8.70
2022-08-18T03:13:23.399Z,9.00
2022-08-18T03:14:23.516Z,8.50
2022-08-18T03:15:23.638Z,8.40
2022-08-18T03:16:23.824Z,8.90
2022-08-18T03:17:23.961Z,9.00
2022-08-18T03:18:24.208Z,9.00
2022-08-18T03:19:24.245Z,8.60
2022-08-18T03:20:30.166Z,9.00
2022-08-18T03:21:25.480Z,9.10
2022-08-18T03:22:28.033Z,8.70
2022-08-18T03:23:30.356Z,9.00
2022-08-18T03:24:24.818Z,9.10
2022-08-18T03:25:24.934Z,9.10
2022-08-18T03:26:25.060Z,9.20
2022-08-18T03:27:25.189Z,9.10
2022-08-18T03:28:25.584Z,8.80
2022-08-18T03:29:29.561Z,9.30
2022-08-18T03:30:26.518Z,9.10
2022-08-18T03:31:27.921Z,9.10
2022-08-18T03:32:25.790Z,9.30
2022-08-18T03:33:25.929Z,8.90
2022-08-18T03:34:26.101Z,9.50
2022-08-18T03:35:26.229Z,9.20
2022-08-18T03:36:26.365Z,9.70
2022-08-18T03:37:26.508Z,9.50
2022-08-18T03:38:26.627Z,9.00
2022-08-18T03:39:26.823Z,9.00
2022-08-18T03:40:26.933Z,9.10
2022-08-18T03:41:57.655Z,9.30
2022-08-18T03:42:28.160Z,9.50
2022-08-18T03:43:50.693Z,9.20
2022-08-18T03:44:28.368Z,9.50
2022-08-18T03:45:27.493Z,9.20
2022-08-18T03:46:27.615Z,9.50
2022-08-18T03:47:27.697Z,9.50
2022-08-18T03:48:27.827Z,8.90
2022-08-18T03:49:27.975Z,9.60
2022-08-18T03:50:28.078Z,9.00
2022-08-18T03:51:35.220Z,9.30
2022-08-18T03:52:30.018Z,9.00
2022-08-18T03:53:28.498Z,9.70
2022-08-18T03:54:28.640Z,9.30
2022-08-18T03:55:28.762Z,9.80
2022-08-18T03:56:28.886Z,9.20
2022-08-18T03:57:29.005Z,9.40
2022-08-18T03:58:29.108Z,9.20
2022-08-18T03:59:29.230Z,9.50
2022-08-18T04:00:29.412Z,9.40
2022-08-18T04:01:29.552Z,9.50
2022-08-18T04:02:29.595Z,9.80
2022-08-18T04:03:29.750Z,9.50
2022-08-18T04:04:29.869Z,9.50
2022-08-18T04:05:30.008Z,9.80
2022-08-18T04:06:30.645Z,10.00
2022-08-18T04:07:30.230Z,9.70
2022-08-18T04:08:30.380Z,9.50
2022-08-18T04:09:30.501Z,10.00
2022-08-18T04:10:30.646Z,10.20
2022-08-18T04:11:35.663Z,10.10
2022-08-18T04:12:31.871Z,10.10
2022-08-18T04:13:31.019Z,10.00
2022-08-18T04:14:31.141Z,9.80
2022-08-18T04:15:31.266Z,9.70
2022-08-18T04:16:31.410Z,9.80
2022-08-18T04:17:31.537Z,9.60
2022-08-18T04:18:31.678Z,9.90
2022-08-18T04:19:31.809Z,9.70
2022-08-18T04:20:31.947Z,10.10
2022-08-18T04:21:32.072Z,10.30
2022-08-18T04:22:32.191Z,9.80
2022-08-18T04:23:33.106Z,10.00
2022-08-18T04:24:33.597Z,9.60
2022-08-18T04:25:33.120Z,10.10
2022-08-18T04:26:32.738Z,9.70
2022-08-18T04:27:32.874Z,10.30
2022-08-18T04:28:33.037Z,9.80
2022-08-18T04:29:33.158Z,10.50
2022-08-18T04:30:33.288Z,9.50
2022-08-18T04:31:33.414Z,9.90
2022-08-18T04:32:33.545Z,9.90
2022-08-18T04:33:33.681Z,10.10
2022-08-18T04:34:33.821Z,10.10
2022-08-18T04:35:33.936Z,10.30
2022-08-18T04:36:34.067Z,9.80
2022-08-18T04:37:39.760Z,9.70
2022-08-18T04:38:35.276Z,9.90
2022-08-18T04:39:34.467Z,10.00
2022-08-18T04:40:34.490Z,9.70
2022-08-18T04:41:34.617Z,10.00
2022-08-18T04:42:34.759Z,10.40
2022-08-18T04:43:35.856Z,10.50
2022-08-18T04:44:34.979Z,10.00
2022-08-18T04:45:35.102Z,10.40
2022-08-18T04:46:35.238Z,10.80
2022-08-18T04:47:35.366Z,10.30
2022-08-18T04:48:35.498Z,10.00
2022-08-18T04:49:35.637Z,10.30
2022-08-18T04:50:35.767Z,10.30
2022-08-18T04:52:36.670Z,10.40
2022-08-18T04:52:41.252Z,10.40
2022-08-18T04:53:36.126Z,10.40
2022-08-18T04:54:36.323Z,10.00
2022-08-18T04:55:36.428Z,10.30
2022-08-18T04:56:36.549Z,10.50
2022-08-18T04:57:36.687Z,10.50
2022-08-18T04:58:36.814Z,11.10
2022-08-18T04:59:36.957Z,10.10
2022-08-18T05:00:37.077Z,10.60
2022-08-18T05:01:37.241Z,10.50
2022-08-18T05:02:37.259Z,10.10
2022-08-18T05:03:37.380Z,10.50
2022-08-18T05:04:38.469Z,10.40
2022-08-18T05:05:37.595Z,10.60
2022-08-18T05:06:37.721Z,10.00
2022-08-18T05:07:37.837Z,10.60
2022-08-18T05:08:37.967Z,10.20
2022-08-18T05:09:41.320Z,10.20
2022-08-18T05:10:38.217Z,10.30
2022-08-18T05:11:38.341Z,10.20
2022-08-18T05:12:38.457Z,10.80
2022-08-18T05:13:38.984Z,10.10
2022-08-18T05:14:38.714Z,10.60
2022-08-18T05:16:06.941Z,10.20
2022-08-18T05:16:48.298Z,10.60
2022-08-18T05:17:40.093Z,10.70
2022-08-18T05:18:39.254Z,10.70
2022-08-18T05:19:44.182Z,10.50
2022-08-18T05:20:40.450Z,10.40
2022-08-18T05:21:39.557Z,9.90
2022-08-18T05:22:39.681Z,10.60
2022-08-18T05:23:39.794Z,10.50
2022-08-18T05:24:39.941Z,10.50
2022-08-18T05:25:40.050Z,10.50
2022-08-18T05:26:40.166Z,10.30
2022-08-18T05:27:40.285Z,10.40
2022-08-18T05:28:40.395Z,10.40
2022-08-18T05:29:41.566Z,10.30
2022-08-18T05:30:41.608Z,10.30
2022-08-18T05:31:40.709Z,10.80
2022-08-18T05:32:48.520Z,11.00
2022-08-18T05:33:41.897Z,10.30
2022-08-18T05:34:41.013Z,10.20
2022-08-18T05:35:41.187Z,10.50
2022-08-18T05:36:41.184Z,11.10
2022-08-18T05:37:41.295Z,10.40
2022-08-18T05:38:41.408Z,10.20
2022-08-18T05:39:41.558Z,10.30
2022-08-18T05:40:41.666Z,10.50
2022-08-18T05:41:41.779Z,10.70
2022-08-18T05:42:41.921Z,11.00
2022-08-18T05:43:52.186Z,10.40
2022-08-18T05:44:43.096Z,10.40
2022-08-18T05:45:42.226Z,10.60
2022-08-18T05:46:42.341Z,11.20
2022-08-18T05:47:42.467Z,10.70
2022-08-18T05:48:43.217Z,10.80
2022-08-18T05:49:42.679Z,10.60
2022-08-18T05:50:42.799Z,10.90
2022-08-18T05:51:42.911Z,10.70
2022-08-18T05:52:43.016Z,10.50
2022-08-18T05:53:43.116Z,10.50
2022-08-18T05:54:43.224Z,10.90
2022-08-18T05:55:47.629Z,10.80
2022-08-18T05:56:43.487Z,11.00
2022-08-18T05:57:43.601Z,10.70
2022-08-18T05:58:43.705Z,10.80
2022-08-18T05:59:43.813Z,10.90
2022-08-18T06:00:43.885Z,10.80
2022-08-18T06:01:44.046Z,10.70
2022-08-18T06:02:44.185Z,11.20
2022-08-18T06:03:45.179Z,10.90
2022-08-18T06:04:44.345Z,11.00
2022-08-18T06:05:44.479Z,10.60
2022-08-18T06:06:47.666Z,10.70
2022-08-18T06:07:44.815Z,10.40
2022-08-18T06:08:44.837Z,10.70
2022-08-18T06:09:44.978Z,11.00
2022-08-18T06:10:45.089Z,10.90
2022-08-18T06:11:45.200Z,10.20
2022-08-18T06:12:47.269Z,10.10
2022-08-18T06:13:45.425Z,11.20
2022-08-18T06:14:45.573Z,10.50
2022-08-18T06:15:45.671Z,10.50
2022-08-18T06:16:45.837Z,11.30
2022-08-18T06:17:46.724Z,10.40
2022-08-18T06:18:46.075Z,10.70
2022-08-18T06:19:46.210Z,10.70
2022-08-18T06:20:46.326Z,10.50
2022-08-18T06:21:46.457Z,10.20
2022-08-18T06:22:52.399Z,10.60
2022-08-18T06:23:47.650Z,10.00
2022-08-18T06:24:46.800Z,10.40
2022-08-18T06:25:46.924Z,10.10
2022-08-18T06:26:47.036Z,10.40
2022-08-18T06:27:47.177Z,10.50
2022-08-18T06:28:47.199Z,10.50
2022-08-18T06:29:47.338Z,10.20
2022-08-18T06:30:47.480Z,10.40
2022-08-18T06:31:47.598Z,10.20
2022-08-18T06:32:47.708Z,10.00
2022-08-18T06:33:47.822Z,10.10
2022-08-18T06:34:47.974Z,10.40
2022-08-18T06:35:48.512Z,10.50
2022-08-18T06:36:48.098Z,10.10
2022-08-18T06:37:48.265Z,10.10
2022-08-18T06:38:48.262Z,9.70
2022-08-18T06:39:48.445Z,9.80
2022-08-18T06:40:48.434Z,10.10
2022-08-18T06:41:48.528Z,9.60
2022-08-18T06:42:48.639Z,9.70
2022-08-18T06:43:48.775Z,10.10
2022-08-18T06:44:48.873Z,10.10
2022-08-18T06:45:48.975Z,10.40
2022-08-18T06:46:49.068Z,10.30
2022-08-18T06:47:49.161Z,10.00
2022-08-18T06:48:49.287Z,9.70
2022-08-18T06:49:49.386Z,9.80
2022-08-18T06:50:49.532Z,10.40
2022-08-18T06:51:49.631Z,10.80
2022-08-18T06:52:49.710Z,10.40
2022-08-18T06:53:49.815Z,10.70
2022-08-18T06:54:51.570Z,10.40
2022-08-18T06:55:49.967Z,10.80
2022-08-18T06:56:50.093Z,10.70
2022-08-18T06:57:50.291Z,10.70
2022-08-18T06:58:53.186Z,10.50
2022-08-18T06:59:50.341Z,10.10
2022-08-18T07:00:50.568Z,10.30
2022-08-18T07:01:50.556Z,9.80
2022-08-18T07:02:50.658Z,10.80
2022-08-18T07:03:50.896Z,10.40
2022-08-18T07:04:50.855Z,10.50
2022-08-18T07:05:50.969Z,10.20
2022-08-18T07:06:51.066Z,10.30
2022-08-18T07:07:51.222Z,10.60
2022-08-18T07:08:51.312Z,10.70
2022-08-18T07:09:51.397Z,10.50
2022-08-18T07:10:51.578Z,10.30
2022-08-18T07:11:51.595Z,10.80
2022-08-18T07:12:51.755Z,10.40
2022-08-18T07:14:03.600Z,10.40
2022-08-18T07:14:52.801Z,10.20
2022-08-18T07:15:51.946Z,11.30
2022-08-18T07:17:00.106Z,10.80
2022-08-18T07:17:53.144Z,11.20
2022-08-18T07:18:52.049Z,10.50
2022-08-18T07:19:52.175Z,10.60
2022-08-18T07:20:52.306Z,10.70
2022-08-18T07:21:52.412Z,10.50
2022-08-18T07:22:52.533Z,10.60
2022-08-18T07:24:14.202Z,10.90
2022-08-18T07:24:53.660Z,10.50
2022-08-18T07:25:52.811Z,10.60
2022-08-18T07:26:52.809Z,11.00
2022-08-18T07:27:53.236Z,10.10
2022-08-18T07:28:52.931Z,9.80
2022-08-18T07:29:53.026Z,11.00
2022-08-18T07:31:15.557Z,10.50
2022-08-18T07:31:54.179Z,10.60
2022-08-18T07:32:53.292Z,10.70
2022-08-18T07:33:53.415Z,10.10
2022-08-18T07:34:53.607Z,10.40
2022-08-18T07:35:53.668Z,10.30
2022-08-18T07:36:53.640Z,10.80
2022-08-18T07:37:53.832Z,10.20
2022-08-18T07:38:53.855Z,10.70
2022-08-18T07:39:54.003Z,10.50
2022-08-18T07:40:54.036Z,10.70
2022-08-18T07:41:54.123Z,10.30
2022-08-18T07:43:02.100Z,10.30
2022-08-18T07:43:55.284Z,10.40
2022-08-18T07:44:54.383Z,10.70
2022-08-18T07:45:54.520Z,9.90
2022-08-18T07:46:54.604Z,10.20
2022-08-18T07:47:54.776Z,10.10
2022-08-18T07:48:54.736Z,10.10
2022-08-18T07:50:18.259Z,10.20
2022-08-18T07:50:58.283Z,10.50
2022-08-18T07:51:55.035Z,9.70
2022-08-18T07:52:55.128Z,9.80
2022-08-18T07:53:56.540Z,10.30
2022-08-18T07:54:55.286Z,10.10
2022-08-18T07:55:55.405Z,10.50
2022-08-18T07:56:55.486Z,10.00
2022-08-18T07:57:55.775Z,10.70
2022-08-18T07:58:55.634Z,10.00
2022-08-18T07:59:55.744Z,9.80
2022-08-18T08:00:59.124Z,10.30
2022-08-18T08:01:55.962Z,10.30
2022-08-18T08:02:55.941Z,9.50
2022-08-18T08:03:56.069Z,9.80
2022-08-18T08:04:56.154Z,9.90
2022-08-18T08:05:56.240Z,10.50
2022-08-18T08:07:23.036Z,10.50
2022-08-18T08:07:57.397Z,10.00
2022-08-18T08:08:56.496Z,10.30
2022-08-18T08:09:56.591Z,10.50
2022-08-18T08:10:56.701Z,10.70
2022-08-18T08:11:56.716Z,10.40
2022-08-18T08:13:08.359Z,10.40
2022-08-18T08:13:57.891Z,10.50
2022-08-18T08:14:56.965Z,10.00
2022-08-18T08:15:57.067Z,10.50
2022-08-18T08:16:57.179Z,10.30
2022-08-18T08:17:57.261Z,10.50
2022-08-18T08:18:57.362Z,10.20
2022-08-18T08:20:00.645Z,10.20
2022-08-18T08:20:57.538Z,10.40
2022-08-18T08:21:57.652Z,10.70
2022-08-18T08:22:57.766Z,10.70
2022-08-18T08:23:57.834Z,10.30
2022-08-18T08:24:57.933Z,10.50
2022-08-18T08:25:58.041Z,10.30
2022-08-18T08:26:58.202Z,10.30
2022-08-18T08:27:58.146Z,10.70
2022-08-18T08:28:58.180Z,10.30
2022-08-18T08:29:58.290Z,11.10
2022-08-18T08:31:13.552Z,10.50
2022-08-18T08:31:59.438Z,10.30
2022-08-18T08:32:58.623Z,10.10
2022-08-18T08:34:01.668Z,11.10
2022-08-18T08:34:59.647Z,10.90
2022-08-18T08:35:58.738Z,10.90
2022-08-18T08:36:58.836Z,11.10
2022-08-18T08:38:04.808Z,10.60
2022-08-18T08:38:59.948Z,10.70
2022-08-18T08:39:59.141Z,10.40
2022-08-18T08:40:59.159Z,11.10
2022-08-18T08:42:30.264Z,11.10
2022-08-18T08:43:00.308Z,11.00
2022-08-18T08:43:59.436Z,9.90
2022-08-18T08:44:59.995Z,10.90
2022-08-18T08:45:59.501Z,10.20
2022-08-18T08:46:59.457Z,10.60
2022-08-18T08:48:08.098Z,10.70
2022-08-18T08:49:00.605Z,10.50
2022-08-18T08:50:01.046Z,9.80
2022-08-18T08:50:59.699Z,10.50
2022-08-18T08:51:59.787Z,10.40
2022-08-18T08:52:59.863Z,10.70
2022-08-18T08:53:59.966Z,10.50
2022-08-18T08:55:00.028Z,10.50
2022-08-18T08:56:02.458Z,10.40
2022-08-18T08:57:00.200Z,10.10
2022-08-18T08:58:00.151Z,10.30
2022-08-18T08:59:00.261Z,10.20
2022-08-18T09:00:00.243Z,9.60
2022-08-18T09:01:00.370Z,10.20
2022-08-18T09:02:00.550Z,10.40
2022-08-18T09:03:00.598Z,10.00
2022-08-18T09:04:00.461Z,10.10
2022-08-18T09:05:08.418Z,10.10
2022-08-18T09:06:01.514Z,9.90
2022-08-18T09:07:00.699Z,9.70
2022-08-18T09:08:00.635Z,10.20
2022-08-18T09:09:00.631Z,10.20
2022-08-18T09:10:00.630Z,10.10
2022-08-18T09:11:00.732Z,9.80
2022-08-18T09:12:00.685Z,9.80
2022-08-18T09:13:00.761Z,9.90
2022-08-18T09:14:00.864Z,9.80
2022-08-18T09:15:01.068Z,9.70
2022-08-18T09:16:01.097Z,10.00
2022-08-18T09:17:02.117Z,9.90
2022-08-18T09:18:01.086Z,10.10
2022-08-18T09:19:01.015Z,9.90
2022-08-18T09:20:01.234Z,10.10
2022-08-18T09:21:01.019Z,10.60
2022-08-18T09:22:01.053Z,9.90
2022-08-18T09:23:01.165Z,10.10
2022-08-18T09:24:01.064Z,10.20
2022-08-18T09:25:01.099Z,9.90
2022-08-18T09:26:01.114Z,10.30
2022-08-18T09:27:01.134Z,9.40
2022-08-18T09:28:10.985Z,10.10
2022-08-18T09:29:02.129Z,9.80
2022-08-18T09:30:01.209Z,9.90
2022-08-18T09:31:01.125Z,9.40
2022-08-18T09:32:01.083Z,10.00
2022-08-18T09:33:01.107Z,9.50
2022-08-18T09:34:06.728Z,10.20
2022-08-18T09:35:02.116Z,9.30
2022-08-18T09:36:01.100Z,9.80
2022-08-18T09:37:00.977Z,9.10
2022-08-18T09:38:01.015Z,9.20
2022-08-18T09:39:01.047Z,9.20
2022-08-18T09:40:11.070Z,9.40
2022-08-18T09:41:03.453Z,9.40
2022-08-18T09:42:00.994Z,9.50
2022-08-18T09:43:02.141Z,9.60
2022-08-18T09:44:00.936Z,9.40
2022-08-18T09:45:00.911Z,9.10
2022-08-18T09:46:00.985Z,9.00
2022-08-18T09:47:01.357Z,9.40
2022-08-18T09:48:00.870Z,9.30
2022-08-18T09:49:00.856Z,9.80
2022-08-18T09:50:01.829Z,9.40
2022-08-18T09:51:00.798Z,9.40
2022-08-18T09:52:08.765Z,8.90
2022-08-18T09:53:04.700Z,8.90
2022-08-18T09:54:00.740Z,8.80
2022-08-18T09:55:01.501Z,9.10
2022-08-18T09:56:04.829Z,9.40
2022-08-18T09:57:00.718Z,9.70
2022-08-18T09:58:00.741Z,9.00
2022-08-18T09:59:00.709Z,9.10
2022-08-18T10:00:00.711Z,9.40
2022-08-18T10:01:00.778Z,9.30
2022-08-18T10:02:00.668Z,9.30
2022-08-18T10:03:00.709Z,9.20
2022-08-18T10:04:00.700Z,9.30
2022-08-18T10:05:00.738Z,8.90
2022-08-18T10:06:01.712Z,10.00
2022-08-18T10:07:00.670Z,9.40
2022-08-18T10:08:00.666Z,10.40
2022-08-18T10:09:00.662Z,9.60
2022-08-18T10:10:00.814Z,10.80
2022-08-18T10:12:01.488Z,9.70
2022-08-18T10:13:00.482Z,10.30
2022-08-18T10:14:00.480Z,9.90
2022-08-18T10:15:00.403Z,10.40
2022-08-18T10:16:10.243Z,9.80
2022-08-18T10:17:23.703Z,9.80
2022-08-18T10:18:01.277Z,9.80
2022-08-18T10:19:00.266Z,9.60
2022-08-18T10:20:00.171Z,9.20
2022-08-18T10:21:00.076Z,9.30
2022-08-18T10:22:00.023Z,9.20
2022-08-18T10:23:00.021Z,9.10
2022-08-18T10:24:29.782Z,9.50
2022-08-18T10:25:20.863Z,9.40
2022-08-18T10:26:04.441Z,8.70
2022-08-18T10:26:59.890Z,9.50
2022-08-18T10:27:59.902Z,9.40
2022-08-18T10:28:59.903Z,9.40
2022-08-18T10:29:59.922Z,9.60
2022-08-18T10:31:05.879Z,9.50
2022-08-18T10:32:00.924Z,9.00
2022-08-18T10:33:00.333Z,9.20
2022-08-18T10:33:59.833Z,9.20
2022-08-18T10:34:59.815Z,8.70
2022-08-18T10:35:59.792Z,9.10
2022-08-18T10:36:59.764Z,9.20
2022-08-18T10:37:59.747Z,9.20
2022-08-18T10:38:59.713Z,8.80
2022-08-18T10:39:59.743Z,9.30
2022-08-18T10:40:59.634Z,9.10
2022-08-18T10:42:00.546Z,8.70
2022-08-18T10:42:59.492Z,9.40
2022-08-18T10:43:59.507Z,8.90
2022-08-18T10:44:59.455Z,9.40
2022-08-18T10:46:25.437Z,8.70
2022-08-18T10:47:00.310Z,9.00
2022-08-18T10:47:59.243Z,8.60
2022-08-18T10:48:59.162Z,9.20
2022-08-18T10:49:59.103Z,8.50
2022-08-18T10:50:59.045Z,9.20
2022-08-18T10:52:00.371Z,8.90
2022-08-18T10:53:24.470Z,9.20
2022-08-18T10:53:59.732Z,9.60
2022-08-18T10:54:58.599Z,9.10
2022-08-18T10:55:58.577Z,8.90
2022-08-18T10:56:58.472Z,9.60
2022-08-18T10:57:58.388Z,9.50
2022-08-18T10:58:58.334Z,8.60
2022-08-18T10:59:58.276Z,8.60
2022-08-18T11:00:58.234Z,9.20
2022-08-18T11:01:58.164Z,9.00
2022-08-18T11:03:02.569Z,9.30
2022-08-18T11:03:59.100Z,8.90
2022-08-18T11:04:59.098Z,9.20
2022-08-18T11:05:57.786Z,8.90
2022-08-18T11:06:57.645Z,9.10
2022-08-18T11:08:58.453Z,8.40
2022-08-18T11:10:04.888Z,8.20
2022-08-18T11:11:27.546Z,8.50
2022-08-18T11:12:00.842Z,8.90
2022-08-18T11:12:57.452Z,8.60
2022-08-18T11:13:57.009Z,8.00
2022-08-18T11:14:56.864Z,7.80
2022-08-18T11:15:56.758Z,7.90
2022-08-18T11:16:56.764Z,8.30
2022-08-18T11:17:56.603Z,8.00
2022-08-18T11:18:56.475Z,7.50
2022-08-18T11:19:56.426Z,7.80
2022-08-18T11:20:56.261Z,7.40
2022-08-18T11:21:56.260Z,7.80
2022-08-18T11:23:57.030Z,8.40
2022-08-18T11:24:55.920Z,8.00
2022-08-18T11:25:55.906Z,7.90
2022-08-18T11:26:55.814Z,8.20
2022-08-18T11:27:55.789Z,8.00
2022-08-18T11:28:55.784Z,7.90
2022-08-18T11:29:55.517Z,8.10
2022-08-18T11:30:55.463Z,7.90
2022-08-18T11:31:55.416Z,7.20
2022-08-18T11:32:55.585Z,8.10
2022-08-18T11:33:55.269Z,8.30
2022-08-18T11:34:55.215Z,8.10
2022-08-18T11:35:55.147Z,8.90
2022-08-18T11:36:55.111Z,8.30
2022-08-18T11:37:54.961Z,8.20
2022-08-18T11:38:54.802Z,8.30
2022-08-18T11:39:54.803Z,8.80
2022-08-18T11:41:11.549Z,8.60
2022-08-18T11:41:55.654Z,8.30
2022-08-18T11:42:54.713Z,8.20
2022-08-18T11:43:54.353Z,7.80
2022-08-18T11:44:54.304Z,8.00
2022-08-18T11:45:54.240Z,7.90
2022-08-18T11:46:54.190Z,7.80
2022-08-18T11:47:54.064Z,7.60
2022-08-18T11:48:54.140Z,7.30
2022-08-18T11:49:53.982Z,7.70
2022-08-18T11:50:54.419Z,8.30
2022-08-18T11:51:53.889Z,7.90
2022-08-18T11:52:54.572Z,7.60
2022-08-18T11:53:58.280Z,7.80
2022-08-18T11:54:54.611Z,8.50
2022-08-18T11:55:53.520Z,8.40
2022-08-18T11:56:53.669Z,7.30
2022-08-18T11:57:53.369Z,7.00
2022-08-18T11:58:53.324Z,7.60
2022-08-18T12:00:00.618Z,7.10
2022-08-18T12:00:54.057Z,7.90
2022-08-18T12:01:52.992Z,7.70
2022-08-18T12:02:53.047Z,7.60
2022-08-18T12:03:52.869Z,7.60
2022-08-18T12:04:53.034Z,8.00
2022-08-18T12:06:53.609Z,7.80
2022-08-18T12:07:57.818Z,7.60
2022-08-18T12:10:53.339Z,7.70
2022-08-18T12:11:52.311Z,7.70
2022-08-18T12:12:52.899Z,8.10
2022-08-18T12:13:52.266Z,7.90
2022-08-18T12:14:52.276Z,7.60
2022-08-18T12:15:52.159Z,7.60
2022-08-18T12:16:54.091Z,7.30
2022-08-18T12:17:53.050Z,6.90
2022-08-18T12:18:52.022Z,6.90
2022-08-18T12:19:51.926Z,7.00
2022-08-18T12:20:51.796Z,6.80
2022-08-18T12:21:51.667Z,6.50
2022-08-18T12:22:52.150Z,6.70
2022-08-18T12:23:52.290Z,6.70
2022-08-18T12:24:51.475Z,7.00
2022-08-18T12:25:51.608Z,7.60
2022-08-18T12:26:52.159Z,7.00
2022-08-18T12:27:51.328Z,6.60
2022-08-18T12:28:51.294Z,6.70
2022-08-18T12:29:51.274Z,6.80
2022-08-18T12:30:56.329Z,7.10
2022-08-18T12:31:52.193Z,6.80
2022-08-18T12:33:00.729Z,7.10
2022-08-18T12:34:00.663Z,6.40
2022-08-18T12:34:51.976Z,6.50
2022-08-18T12:35:50.866Z,6.70
2022-08-18T12:36:50.834Z,6.80
2022-08-18T12:38:52.035Z,6.90
2022-08-18T12:39:51.681Z,6.70
2022-08-18T12:40:50.589Z,6.80
2022-08-18T12:41:50.511Z,6.20
2022-08-18T12:42:50.533Z,6.60
2022-08-18T12:43:58.687Z,7.10
2022-08-18T12:44:51.150Z,7.00
2022-08-18T12:45:50.096Z,6.50
2022-08-18T12:46:50.080Z,5.90
2022-08-18T12:47:49.910Z,6.60
2022-08-18T12:48:49.868Z,6.40
2022-08-18T12:49:50.796Z,6.40
2022-08-18T12:50:58.673Z,6.50
2022-08-18T12:51:50.739Z,6.20
2022-08-18T12:52:49.492Z,6.70
2022-08-18T12:53:58.276Z,6.90
2022-08-18T12:54:55.667Z,6.90
2022-08-18T12:55:50.115Z,6.70
2022-08-18T12:56:49.085Z,7.10
2022-08-18T12:58:49.920Z,7.30
2022-08-18T12:59:48.862Z,7.00
2022-08-18T13:00:48.865Z,7.10
2022-08-18T13:01:48.771Z,7.00
2022-08-18T13:02:48.691Z,6.70
2022-08-18T13:04:11.433Z,6.50
2022-08-18T13:04:49.755Z,6.80
2022-08-18T13:05:48.390Z,6.90
2022-08-18T13:06:58.894Z,7.00
2022-08-18T13:07:49.259Z,7.30
2022-08-18T13:08:50.383Z,6.70
2022-08-18T13:09:52.910Z,6.80
2022-08-18T13:10:48.946Z,6.80
2022-08-18T13:11:47.799Z,6.60
2022-08-18T13:12:47.743Z,6.50
2022-08-18T13:13:47.698Z,6.40
2022-08-18T13:14:48.673Z,6.80
2022-08-18T13:15:57.957Z,6.50
2022-08-18T13:16:54.818Z,6.80
2022-08-18T13:17:48.415Z,6.80